sensor_id;sensor_type;location;lat;lon;timestamp;P1;durP1;ratioP1;P2;durP2;ratioP2
12675;SDS011;63820;65.654;21.944;2023-01-25T00:00:49;1.40;;;0.80;;
12675;SDS011;63820;65.654;21.944;2023-01-25T00:03:33;0.70;;;0.70;;
12675;SDS011;63820;65.654;21.944;2023-01-25T00:06:18;0.60;;;0.60;;
12675;SDS011;63820;65.654;21.944;2023-01-25T00:09:03;1.13;;;0.80;;
12675;SDS011;63820;65.654;21.944;2023-01-25T00:11:47;1.10;;;0.60;;
12675;SDS011;63820;65.654;21.944;2023-01-25T00:14:32;0.50;;;0.50;;
12675;SDS011;63820;65.654;21.944;2023-01-25T00:17:16;1.03;;;0.57;;
12675;SDS011;63820;65.654;21.944;2023-01-25T00:20:01;0.93;;;0.60;;
12675;SDS011;63820;65.654;21.944;2023-01-25T00:22:45;1.30;;;0.60;;
12675;SDS011;63820;65.654;21.944;2023-01-25T00:25:29;1.40;;;0.50;;
12675;SDS011;63820;65.654;21.944;2023-01-25T00:28:14;0.60;;;0.60;;
12675;SDS011;63820;65.654;21.944;2023-01-25T00:30:59;1.17;;;0.70;;
12675;SDS011;63820;65.654;21.944;2023-01-25T00:33:54;1.03;;;0.60;;
12675;SDS011;63820;65.654;21.944;2023-01-25T00:36:43;0.63;;;0.60;;
12675;SDS011;63820;65.654;21.944;2023-01-25T00:39:27;0.60;;;0.50;;
12675;SDS011;63820;65.654;21.944;2023-01-25T00:42:13;0.40;;;0.40;;
12675;SDS011;63820;65.654;21.944;2023-01-25T00:44:58;1.13;;;0.63;;
12675;SDS011;63820;65.654;21.944;2023-01-25T00:47:43;0.87;;;0.50;;
12675;SDS011;63820;65.654;21.944;2023-01-25T00:50:27;1.37;;;0.60;;
12675;SDS011;63820;65.654;21.944;2023-01-25T00:53:11;0.67;;;0.50;;
12675;SDS011;63820;65.654;21.944;2023-01-25T00:55:55;0.70;;;0.60;;
12675;SDS011;63820;65.654;21.944;2023-01-25T00:58:40;1.20;;;0.60;;
12675;SDS011;63820;65.654;21.944;2023-01-25T01:01:24;0.93;;;0.47;;
12675;SDS011;63820;65.654;21.944;2023-01-25T01:04:09;0.30;;;0.30;;
12675;SDS011;63820;65.654;21.944;2023-01-25T01:06:53;0.70;;;0.47;;
12675;SDS011;63820;65.654;21.944;2023-01-25T01:09:37;0.50;;;0.40;;
12675;SDS011;63820;65.654;21.944;2023-01-25T01:12:22;0.30;;;0.30;;
12675;SDS011;63820;65.654;21.944;2023-01-25T01:15:06;0.40;;;0.40;;
12675;SDS011;63820;65.654;21.944;2023-01-25T01:17:51;0.40;;;0.40;;
12675;SDS011;63820;65.654;21.944;2023-01-25T01:20:35;0.57;;;0.40;;
12675;SDS011;63820;65.654;21.944;2023-01-25T01:23:19;0.63;;;0.50;;
12675;SDS011;63820;65.654;21.944;2023-01-25T01:26:04;0.40;;;0.40;;
12675;SDS011;63820;65.654;21.944;2023-01-25T01:28:50;0.40;;;0.40;;
12675;SDS011;63820;65.654;21.944;2023-01-25T01:31:35;0.30;;;0.30;;
12675;SDS011;63820;65.654;21.944;2023-01-25T01:34:19;0.40;;;0.40;;
12675;SDS011;63820;65.654;21.944;2023-01-25T01:37:03;0.40;;;0.40;;
12675;SDS011;63820;65.654;21.944;2023-01-25T01:39:47;0.83;;;0.67;;
12675;SDS011;63820;65.654;21.944;2023-01-25T01:42:31;0.40;;;0.40;;
12675;SDS011;63820;65.654;21.944;2023-01-25T01:51:46;0.70;;;0.50;;
12675;SDS011;63820;65.654;21.944;2023-01-25T01:54:56;0.73;;;0.60;;
12675;SDS011;63820;65.654;21.944;2023-01-25T01:57:47;1.50;;;0.63;;
12675;SDS011;63820;65.654;21.944;2023-01-25T02:00:36;1.17;;;0.53;;
12675;SDS011;63820;65.654;21.944;2023-01-25T02:03:23;0.83;;;0.60;;
12675;SDS011;63820;65.654;21.944;2023-01-25T02:06:12;0.77;;;0.60;;
12675;SDS011;63820;65.654;21.944;2023-01-25T02:09:00;1.90;;;0.73;;
12675;SDS011;63820;65.654;21.944;2023-01-25T02:11:44;0.60;;;0.60;;
12675;SDS011;63820;65.654;21.944;2023-01-25T02:14:30;0.80;;;0.63;;
12675;SDS011;63820;65.654;21.944;2023-01-25T02:17:15;0.50;;;0.50;;
12675;SDS011;63820;65.654;21.944;2023-01-25T02:23:35;0.90;;;0.67;;
12675;SDS011;63820;65.654;21.944;2023-01-25T02:26:31;0.60;;;0.57;;
12675;SDS011;63820;65.654;21.944;2023-01-25T02:29:16;0.67;;;0.50;;
12675;SDS011;63820;65.654;21.944;2023-01-25T02:32:03;1.23;;;0.60;;
12675;SDS011;63820;65.654;21.944;2023-01-25T02:34:48;0.63;;;0.57;;
12675;SDS011;63820;65.654;21.944;2023-01-25T02:37:33;0.53;;;0.47;;
12675;SDS011;63820;65.654;21.944;2023-01-25T02:40:17;0.50;;;0.50;;
12675;SDS011;63820;65.654;21.944;2023-01-25T02:43:02;0.97;;;0.53;;
12675;SDS011;63820;65.654;21.944;2023-01-25T02:45:47;2.97;;;0.53;;
12675;SDS011;63820;65.654;21.944;2023-01-25T02:48:35;1.83;;;0.70;;
12675;SDS011;63820;65.654;21.944;2023-01-25T02:51:20;0.40;;;0.40;;
12675;SDS011;63820;65.654;21.944;2023-01-25T02:54:06;0.93;;;0.40;;
12675;SDS011;63820;65.654;21.944;2023-01-25T02:56:52;0.67;;;0.50;;
12675;SDS011;63820;65.654;21.944;2023-01-25T02:59:36;2.33;;;0.60;;
12675;SDS011;63820;65.654;21.944;2023-01-25T03:02:20;1.03;;;0.53;;
12675;SDS011;63820;65.654;21.944;2023-01-25T03:05:05;1.13;;;0.60;;
12675;SDS011;63820;65.654;21.944;2023-01-25T03:07:49;1.00;;;0.53;;
12675;SDS011;63820;65.654;21.944;2023-01-25T03:10:34;1.00;;;0.60;;
12675;SDS011;63820;65.654;21.944;2023-01-25T03:13:18;1.13;;;0.57;;
12675;SDS011;63820;65.654;21.944;2023-01-25T03:16:04;0.50;;;0.50;;
12675;SDS011;63820;65.654;21.944;2023-01-25T03:18:53;0.50;;;0.50;;
12675;SDS011;63820;65.654;21.944;2023-01-25T03:21:40;1.50;;;0.70;;
12675;SDS011;63820;65.654;21.944;2023-01-25T03:24:24;0.63;;;0.60;;
12675;SDS011;63820;65.654;21.944;2023-01-25T03:27:09;0.70;;;0.60;;
12675;SDS011;63820;65.654;21.944;2023-01-25T03:29:53;0.97;;;0.77;;
12675;SDS011;63820;65.654;21.944;2023-01-25T03:32:37;1.00;;;0.50;;
12675;SDS011;63820;65.654;21.944;2023-01-25T03:35:21;0.50;;;0.50;;
12675;SDS011;63820;65.654;21.944;2023-01-25T03:38:06;1.07;;;0.60;;
12675;SDS011;63820;65.654;21.944;2023-01-25T03:40:50;0.60;;;0.50;;
12675;SDS011;63820;65.654;21.944;2023-01-25T03:43:35;0.80;;;0.40;;
12675;SDS011;63820;65.654;21.944;2023-01-25T03:46:19;1.23;;;0.50;;
12675;SDS011;63820;65.654;21.944;2023-01-25T03:49:03;0.40;;;0.40;;
12675;SDS011;63820;65.654;21.944;2023-01-25T03:51:48;0.53;;;0.40;;
12675;SDS011;63820;65.654;21.944;2023-01-25T03:54:32;0.60;;;0.50;;
12675;SDS011;63820;65.654;21.944;2023-01-25T03:57:16;0.50;;;0.50;;
12675;SDS011;63820;65.654;21.944;2023-01-25T04:00:01;0.30;;;0.30;;
12675;SDS011;63820;65.654;21.944;2023-01-25T04:02:46;1.90;;;0.40;;
12675;SDS011;63820;65.654;21.944;2023-01-25T04:05:30;0.33;;;0.33;;
12675;SDS011;63820;65.654;21.944;2023-01-25T04:08:15;0.40;;;0.40;;
12675;SDS011;63820;65.654;21.944;2023-01-25T04:11:00;1.00;;;0.50;;
12675;SDS011;63820;65.654;21.944;2023-01-25T04:13:46;0.80;;;0.40;;
12675;SDS011;63820;65.654;21.944;2023-01-25T04:16:30;0.40;;;0.30;;
12675;SDS011;63820;65.654;21.944;2023-01-25T04:19:15;0.30;;;0.30;;
12675;SDS011;63820;65.654;21.944;2023-01-25T04:21:59;0.40;;;0.30;;
12675;SDS011;63820;65.654;21.944;2023-01-25T04:24:44;0.50;;;0.40;;
12675;SDS011;63820;65.654;21.944;2023-01-25T04:27:28;0.50;;;0.30;;
12675;SDS011;63820;65.654;21.944;2023-01-25T04:30:12;0.50;;;0.30;;
12675;SDS011;63820;65.654;21.944;2023-01-25T04:33:00;0.40;;;0.40;;
12675;SDS011;63820;65.654;21.944;2023-01-25T04:35:46;0.30;;;0.30;;
12675;SDS011;63820;65.654;21.944;2023-01-25T04:38:30;0.87;;;0.40;;
12675;SDS011;63820;65.654;21.944;2023-01-25T04:41:14;0.30;;;0.30;;
12675;SDS011;63820;65.654;21.944;2023-01-25T04:43:58;0.40;;;0.37;;
12675;SDS011;63820;65.654;21.944;2023-01-25T04:46:42;0.30;;;0.30;;
12675;SDS011;63820;65.654;21.944;2023-01-25T04:49:26;2.20;;;0.40;;
12675;SDS011;63820;65.654;21.944;2023-01-25T04:52:10;0.83;;;0.30;;
12675;SDS011;63820;65.654;21.944;2023-01-25T04:54:55;0.30;;;0.30;;
12675;SDS011;63820;65.654;21.944;2023-01-25T04:57:39;0.33;;;0.33;;
12675;SDS011;63820;65.654;21.944;2023-01-25T05:00:24;0.60;;;0.40;;
12675;SDS011;63820;65.654;21.944;2023-01-25T05:03:08;0.67;;;0.37;;
12675;SDS011;63820;65.654;21.944;2023-01-25T05:05:53;0.47;;;0.30;;
12675;SDS011;63820;65.654;21.944;2023-01-25T05:08:38;0.40;;;0.40;;
12675;SDS011;63820;65.654;21.944;2023-01-25T05:11:22;0.33;;;0.33;;
12675;SDS011;63820;65.654;21.944;2023-01-25T05:14:05;0.40;;;0.40;;
12675;SDS011;63820;65.654;21.944;2023-01-25T05:16:49;1.27;;;0.50;;
12675;SDS011;63820;65.654;21.944;2023-01-25T05:19:34;0.30;;;0.30;;
12675;SDS011;63820;65.654;21.944;2023-01-25T05:22:18;0.53;;;0.50;;
12675;SDS011;63820;65.654;21.944;2023-01-25T05:25:06;0.53;;;0.33;;
12675;SDS011;63820;65.654;21.944;2023-01-25T05:28:10;0.93;;;0.50;;
12675;SDS011;63820;65.654;21.944;2023-01-25T05:30:54;0.50;;;0.50;;
12675;SDS011;63820;65.654;21.944;2023-01-25T05:33:39;0.57;;;0.57;;
12675;SDS011;63820;65.654;21.944;2023-01-25T05:36:23;0.80;;;0.50;;
12675;SDS011;63820;65.654;21.944;2023-01-25T05:39:07;0.73;;;0.40;;
12675;SDS011;63820;65.654;21.944;2023-01-25T05:41:52;0.40;;;0.30;;
12675;SDS011;63820;65.654;21.944;2023-01-25T05:44:36;0.43;;;0.40;;
12675;SDS011;63820;65.654;21.944;2023-01-25T05:47:20;0.37;;;0.37;;
12675;SDS011;63820;65.654;21.944;2023-01-25T05:50:04;0.40;;;0.37;;
12675;SDS011;63820;65.654;21.944;2023-01-25T05:52:49;1.20;;;0.33;;
12675;SDS011;63820;65.654;21.944;2023-01-25T05:55:34;1.33;;;0.40;;
12675;SDS011;63820;65.654;21.944;2023-01-25T05:58:19;0.30;;;0.30;;
12675;SDS011;63820;65.654;21.944;2023-01-25T06:01:04;0.30;;;0.30;;
12675;SDS011;63820;65.654;21.944;2023-01-25T06:03:51;0.70;;;0.37;;
12675;SDS011;63820;65.654;21.944;2023-01-25T06:06:35;0.40;;;0.40;;
12675;SDS011;63820;65.654;21.944;2023-01-25T06:09:20;0.70;;;0.30;;
12675;SDS011;63820;65.654;21.944;2023-01-25T06:12:05;0.47;;;0.30;;
12675;SDS011;63820;65.654;21.944;2023-01-25T06:14:49;0.63;;;0.50;;
12675;SDS011;63820;65.654;21.944;2023-01-25T06:17:34;0.47;;;0.40;;
12675;SDS011;63820;65.654;21.944;2023-01-25T06:20:18;1.33;;;0.40;;
12675;SDS011;63820;65.654;21.944;2023-01-25T06:23:03;0.77;;;0.40;;
12675;SDS011;63820;65.654;21.944;2023-01-25T06:25:47;1.67;;;0.43;;
12675;SDS011;63820;65.654;21.944;2023-01-25T06:28:32;0.97;;;0.50;;
12675;SDS011;63820;65.654;21.944;2023-01-25T06:31:18;0.57;;;0.43;;
12675;SDS011;63820;65.654;21.944;2023-01-25T06:34:03;1.00;;;0.50;;
12675;SDS011;63820;65.654;21.944;2023-01-25T06:36:49;0.60;;;0.50;;
12675;SDS011;63820;65.654;21.944;2023-01-25T06:39:33;0.50;;;0.47;;
12675;SDS011;63820;65.654;21.944;2023-01-25T06:42:17;1.27;;;0.40;;
12675;SDS011;63820;65.654;21.944;2023-01-25T06:45:02;0.77;;;0.50;;
12675;SDS011;63820;65.654;21.944;2023-01-25T06:47:47;1.07;;;0.50;;
12675;SDS011;63820;65.654;21.944;2023-01-25T06:50:32;0.40;;;0.40;;
12675;SDS011;63820;65.654;21.944;2023-01-25T06:53:16;1.13;;;0.53;;
12675;SDS011;63820;65.654;21.944;2023-01-25T06:58:49;1.13;;;0.50;;
12675;SDS011;63820;65.654;21.944;2023-01-25T07:01:34;0.30;;;0.30;;
12675;SDS011;63820;65.654;21.944;2023-01-25T07:04:18;2.07;;;0.50;;
12675;SDS011;63820;65.654;21.944;2023-01-25T07:07:02;0.60;;;0.40;;
12675;SDS011;63820;65.654;21.944;2023-01-25T07:09:50;0.40;;;0.40;;
12675;SDS011;63820;65.654;21.944;2023-01-25T07:12:34;0.47;;;0.40;;
12675;SDS011;63820;65.654;21.944;2023-01-25T07:15:18;0.77;;;0.60;;
12675;SDS011;63820;65.654;21.944;2023-01-25T07:18:03;1.10;;;0.40;;
12675;SDS011;63820;65.654;21.944;2023-01-25T07:20:47;1.37;;;0.40;;
12675;SDS011;63820;65.654;21.944;2023-01-25T07:23:32;0.60;;;0.47;;
12675;SDS011;63820;65.654;21.944;2023-01-25T07:26:18;0.50;;;0.40;;
12675;SDS011;63820;65.654;21.944;2023-01-25T07:29:06;1.57;;;0.50;;
12675;SDS011;63820;65.654;21.944;2023-01-25T07:31:54;0.40;;;0.40;;
12675;SDS011;63820;65.654;21.944;2023-01-25T07:34:38;0.43;;;0.40;;
12675;SDS011;63820;65.654;21.944;2023-01-25T07:37:23;0.53;;;0.40;;
12675;SDS011;63820;65.654;21.944;2023-01-25T07:40:10;0.80;;;0.50;;
12675;SDS011;63820;65.654;21.944;2023-01-25T07:42:55;0.70;;;0.60;;
12675;SDS011;63820;65.654;21.944;2023-01-25T07:45:41;1.70;;;0.60;;
12675;SDS011;63820;65.654;21.944;2023-01-25T07:48:28;1.30;;;0.63;;
12675;SDS011;63820;65.654;21.944;2023-01-25T07:51:13;0.70;;;0.40;;
12675;SDS011;63820;65.654;21.944;2023-01-25T07:54:12;0.50;;;0.40;;
12675;SDS011;63820;65.654;21.944;2023-01-25T07:56:57;0.70;;;0.40;;
12675;SDS011;63820;65.654;21.944;2023-01-25T07:59:41;0.60;;;0.50;;
12675;SDS011;63820;65.654;21.944;2023-01-25T08:02:26;0.47;;;0.47;;
12675;SDS011;63820;65.654;21.944;2023-01-25T08:05:10;0.43;;;0.40;;
12675;SDS011;63820;65.654;21.944;2023-01-25T08:07:55;0.60;;;0.40;;
12675;SDS011;63820;65.654;21.944;2023-01-25T08:10:39;0.73;;;0.43;;
12675;SDS011;63820;65.654;21.944;2023-01-25T08:13:24;0.47;;;0.47;;
12675;SDS011;63820;65.654;21.944;2023-01-25T08:16:08;1.27;;;0.47;;
12675;SDS011;63820;65.654;21.944;2023-01-25T08:18:53;0.60;;;0.50;;
12675;SDS011;63820;65.654;21.944;2023-01-25T08:21:39;0.50;;;0.50;;
12675;SDS011;63820;65.654;21.944;2023-01-25T08:24:24;1.40;;;0.40;;
12675;SDS011;63820;65.654;21.944;2023-01-25T08:27:08;1.23;;;0.40;;
12675;SDS011;63820;65.654;21.944;2023-01-25T08:29:53;1.13;;;0.50;;
12675;SDS011;63820;65.654;21.944;2023-01-25T08:32:37;0.83;;;0.63;;
12675;SDS011;63820;65.654;21.944;2023-01-25T08:35:22;0.67;;;0.60;;
12675;SDS011;63820;65.654;21.944;2023-01-25T08:38:06;1.03;;;0.50;;
12675;SDS011;63820;65.654;21.944;2023-01-25T08:40:51;0.73;;;0.43;;
12675;SDS011;63820;65.654;21.944;2023-01-25T08:43:35;1.00;;;0.60;;
12675;SDS011;63820;65.654;21.944;2023-01-25T08:46:20;1.23;;;0.57;;
12675;SDS011;63820;65.654;21.944;2023-01-25T08:49:06;0.63;;;0.40;;
12675;SDS011;63820;65.654;21.944;2023-01-25T08:51:52;0.80;;;0.63;;
12675;SDS011;63820;65.654;21.944;2023-01-25T08:54:36;0.50;;;0.50;;
12675;SDS011;63820;65.654;21.944;2023-01-25T08:57:21;0.47;;;0.47;;
12675;SDS011;63820;65.654;21.944;2023-01-25T09:00:06;0.40;;;0.40;;
12675;SDS011;63820;65.654;21.944;2023-01-25T09:02:50;0.40;;;0.40;;
12675;SDS011;63820;65.654;21.944;2023-01-25T09:05:35;0.50;;;0.50;;
12675;SDS011;63820;65.654;21.944;2023-01-25T09:08:21;1.10;;;0.40;;
12675;SDS011;63820;65.654;21.944;2023-01-25T09:11:10;0.60;;;0.50;;
12675;SDS011;63820;65.654;21.944;2023-01-25T09:14:03;0.70;;;0.50;;
12675;SDS011;63820;65.654;21.944;2023-01-25T09:16:48;0.67;;;0.50;;
12675;SDS011;63820;65.654;21.944;2023-01-25T09:19:32;1.10;;;0.70;;
12675;SDS011;63820;65.654;21.944;2023-01-25T09:22:16;1.40;;;0.70;;
12675;SDS011;63820;65.654;21.944;2023-01-25T09:25:01;1.30;;;0.70;;
12675;SDS011;63820;65.654;21.944;2023-01-25T09:27:47;0.97;;;0.70;;
12675;SDS011;63820;65.654;21.944;2023-01-25T09:30:33;1.60;;;0.70;;
12675;SDS011;63820;65.654;21.944;2023-01-25T09:33:18;1.33;;;0.60;;
12675;SDS011;63820;65.654;21.944;2023-01-25T09:36:02;0.77;;;0.50;;
12675;SDS011;63820;65.654;21.944;2023-01-25T09:38:47;0.90;;;0.50;;
12675;SDS011;63820;65.654;21.944;2023-01-25T09:44:47;1.60;;;0.60;;
12675;SDS011;63820;65.654;21.944;2023-01-25T09:47:46;0.50;;;0.50;;
12675;SDS011;63820;65.654;21.944;2023-01-25T09:54:10;0.77;;;0.50;;
12675;SDS011;63820;65.654;21.944;2023-01-25T09:56:57;1.57;;;0.43;;
12675;SDS011;63820;65.654;21.944;2023-01-25T09:59:41;0.70;;;0.70;;
12675;SDS011;63820;65.654;21.944;2023-01-25T10:05:51;1.30;;;0.60;;
12675;SDS011;63820;65.654;21.944;2023-01-25T10:11:35;2.30;;;1.13;;
12675;SDS011;63820;65.654;21.944;2023-01-25T10:14:21;1.20;;;0.40;;
12675;SDS011;63820;65.654;21.944;2023-01-25T10:26:33;1.30;;;0.57;;
12675;SDS011;63820;65.654;21.944;2023-01-25T10:29:21;1.13;;;0.53;;
12675;SDS011;63820;65.654;21.944;2023-01-25T10:32:12;1.00;;;0.67;;
12675;SDS011;63820;65.654;21.944;2023-01-25T10:35:18;2.43;;;0.70;;
12675;SDS011;63820;65.654;21.944;2023-01-25T10:38:10;1.60;;;0.40;;
12675;SDS011;63820;65.654;21.944;2023-01-25T10:41:20;0.70;;;0.60;;
12675;SDS011;63820;65.654;21.944;2023-01-25T10:44:11;3.03;;;0.50;;
12675;SDS011;63820;65.654;21.944;2023-01-25T10:47:25;1.63;;;0.53;;
12675;SDS011;63820;65.654;21.944;2023-01-25T10:56:26;0.80;;;0.50;;
12675;SDS011;63820;65.654;21.944;2023-01-25T10:59:16;0.90;;;0.60;;
12675;SDS011;63820;65.654;21.944;2023-01-25T11:02:31;2.50;;;0.57;;
12675;SDS011;63820;65.654;21.944;2023-01-25T11:05:30;0.70;;;0.50;;
12675;SDS011;63820;65.654;21.944;2023-01-25T11:08:24;1.50;;;0.47;;
12675;SDS011;63820;65.654;21.944;2023-01-25T11:11:30;1.33;;;0.50;;
12675;SDS011;63820;65.654;21.944;2023-01-25T11:14:18;0.83;;;0.47;;
12675;SDS011;63820;65.654;21.944;2023-01-25T11:17:29;1.10;;;0.50;;
12675;SDS011;63820;65.654;21.944;2023-01-25T11:20:16;0.30;;;0.30;;
12675;SDS011;63820;65.654;21.944;2023-01-25T11:23:08;0.67;;;0.40;;
12675;SDS011;63820;65.654;21.944;2023-01-25T11:26:15;0.53;;;0.40;;
12675;SDS011;63820;65.654;21.944;2023-01-25T11:29:05;0.40;;;0.40;;
12675;SDS011;63820;65.654;21.944;2023-01-25T11:31:54;0.47;;;0.33;;
12675;SDS011;63820;65.654;21.944;2023-01-25T11:34:40;0.57;;;0.40;;
12675;SDS011;63820;65.654;21.944;2023-01-25T11:40:45;0.20;;;0.20;;
12675;SDS011;63820;65.654;21.944;2023-01-25T11:43:46;0.30;;;0.30;;
12675;SDS011;63820;65.654;21.944;2023-01-25T11:46:56;0.70;;;0.40;;
12675;SDS011;63820;65.654;21.944;2023-01-25T11:50:06;0.27;;;0.27;;
12675;SDS011;63820;65.654;21.944;2023-01-25T11:56:21;0.20;;;0.20;;
12675;SDS011;63820;65.654;21.944;2023-01-25T12:08:32;0.20;;;0.20;;
12675;SDS011;63820;65.654;21.944;2023-01-25T12:11:45;0.20;;;0.20;;
12675;SDS011;63820;65.654;21.944;2023-01-25T12:21:02;0.30;;;0.30;;
12675;SDS011;63820;65.654;21.944;2023-01-25T12:27:37;0.20;;;0.20;;
12675;SDS011;63820;65.654;21.944;2023-01-25T12:36:30;0.20;;;0.20;;
12675;SDS011;63820;65.654;21.944;2023-01-25T12:39:24;0.37;;;0.37;;
12675;SDS011;63820;65.654;21.944;2023-01-25T12:42:19;0.30;;;0.30;;
12675;SDS011;63820;65.654;21.944;2023-01-25T12:45:13;0.20;;;0.20;;
12675;SDS011;63820;65.654;21.944;2023-01-25T12:51:04;0.20;;;0.20;;
12675;SDS011;63820;65.654;21.944;2023-01-25T12:53:48;0.20;;;0.20;;
12675;SDS011;63820;65.654;21.944;2023-01-25T13:06:24;0.20;;;0.20;;
12675;SDS011;63820;65.654;21.944;2023-01-25T13:09:35;0.20;;;0.20;;
12675;SDS011;63820;65.654;21.944;2023-01-25T13:12:28;0.30;;;0.30;;
12675;SDS011;63820;65.654;21.944;2023-01-25T13:15:32;0.20;;;0.20;;
12675;SDS011;63820;65.654;21.944;2023-01-25T13:18:32;0.40;;;0.20;;
12675;SDS011;63820;65.654;21.944;2023-01-25T13:21:37;0.20;;;0.20;;
12675;SDS011;63820;65.654;21.944;2023-01-25T13:24:31;0.20;;;0.20;;
12675;SDS011;63820;65.654;21.944;2023-01-25T13:27:38;0.20;;;0.20;;
12675;SDS011;63820;65.654;21.944;2023-01-25T13:33:30;0.20;;;0.20;;
12675;SDS011;63820;65.654;21.944;2023-01-25T13:45:16;0.20;;;0.20;;
12675;SDS011;63820;65.654;21.944;2023-01-25T13:51:08;0.30;;;0.20;;
12675;SDS011;63820;65.654;21.944;2023-01-25T13:53:57;0.20;;;0.20;;
12675;SDS011;63820;65.654;21.944;2023-01-25T13:56:42;0.20;;;0.20;;
12675;SDS011;63820;65.654;21.944;2023-01-25T13:59:27;0.40;;;0.30;;
12675;SDS011;63820;65.654;21.944;2023-01-25T14:02:18;0.20;;;0.20;;
12675;SDS011;63820;65.654;21.944;2023-01-25T14:05:04;0.30;;;0.30;;
12675;SDS011;63820;65.654;21.944;2023-01-25T14:07:50;0.20;;;0.20;;
12675;SDS011;63820;65.654;21.944;2023-01-25T14:10:38;0.20;;;0.20;;
12675;SDS011;63820;65.654;21.944;2023-01-25T14:13:27;0.10;;;0.10;;
12675;SDS011;63820;65.654;21.944;2023-01-25T14:16:11;0.20;;;0.20;;
12675;SDS011;63820;65.654;21.944;2023-01-25T14:18:57;0.20;;;0.20;;
12675;SDS011;63820;65.654;21.944;2023-01-25T14:25:05;0.20;;;0.20;;
12675;SDS011;63820;65.654;21.944;2023-01-25T14:27:56;0.17;;;0.17;;
12675;SDS011;63820;65.654;21.944;2023-01-25T14:30:42;0.20;;;0.20;;
12675;SDS011;63820;65.654;21.944;2023-01-25T14:33:28;0.20;;;0.20;;
12675;SDS011;63820;65.654;21.944;2023-01-25T14:36:15;0.20;;;0.20;;
12675;SDS011;63820;65.654;21.944;2023-01-25T14:38:59;0.10;;;0.10;;
12675;SDS011;63820;65.654;21.944;2023-01-25T14:41:44;0.20;;;0.20;;
12675;SDS011;63820;65.654;21.944;2023-01-25T14:44:31;0.20;;;0.20;;
12675;SDS011;63820;65.654;21.944;2023-01-25T14:47:29;0.20;;;0.20;;
12675;SDS011;63820;65.654;21.944;2023-01-25T14:50:28;0.20;;;0.20;;
12675;SDS011;63820;65.654;21.944;2023-01-25T14:53:18;0.30;;;0.20;;
12675;SDS011;63820;65.654;21.944;2023-01-25T15:02:27;0.20;;;0.20;;
12675;SDS011;63820;65.654;21.944;2023-01-25T15:05:32;0.10;;;0.10;;
12675;SDS011;63820;65.654;21.944;2023-01-25T15:14:29;0.20;;;0.20;;
12675;SDS011;63820;65.654;21.944;2023-01-25T15:23:24;0.10;;;0.10;;
12675;SDS011;63820;65.654;21.944;2023-01-25T15:26:18;0.20;;;0.20;;
12675;SDS011;63820;65.654;21.944;2023-01-25T15:29:11;0.20;;;0.20;;
12675;SDS011;63820;65.654;21.944;2023-01-25T15:31:56;0.20;;;0.20;;
12675;SDS011;63820;65.654;21.944;2023-01-25T15:34:40;0.63;;;0.30;;
12675;SDS011;63820;65.654;21.944;2023-01-25T15:37:24;0.20;;;0.20;;
12675;SDS011;63820;65.654;21.944;2023-01-25T15:40:08;1.33;;;0.23;;
12675;SDS011;63820;65.654;21.944;2023-01-25T15:42:54;0.20;;;0.20;;
12675;SDS011;63820;65.654;21.944;2023-01-25T15:45:39;0.23;;;0.23;;
12675;SDS011;63820;65.654;21.944;2023-01-25T15:48:38;0.17;;;0.17;;
12675;SDS011;63820;65.654;21.944;2023-01-25T15:51:25;0.20;;;0.20;;
12675;SDS011;63820;65.654;21.944;2023-01-25T15:54:09;0.20;;;0.20;;
12675;SDS011;63820;65.654;21.944;2023-01-25T15:56:54;0.77;;;0.30;;
12675;SDS011;63820;65.654;21.944;2023-01-25T15:59:40;0.63;;;0.27;;
12675;SDS011;63820;65.654;21.944;2023-01-25T16:02:24;0.30;;;0.30;;
12675;SDS011;63820;65.654;21.944;2023-01-25T16:05:09;0.50;;;0.40;;
12675;SDS011;63820;65.654;21.944;2023-01-25T16:07:54;0.47;;;0.20;;
12675;SDS011;63820;65.654;21.944;2023-01-25T16:10:38;0.20;;;0.20;;
12675;SDS011;63820;65.654;21.944;2023-01-25T16:13:22;0.20;;;0.20;;
12675;SDS011;63820;65.654;21.944;2023-01-25T16:16:12;0.77;;;0.40;;
12675;SDS011;63820;65.654;21.944;2023-01-25T16:19:01;0.57;;;0.20;;
12675;SDS011;63820;65.654;21.944;2023-01-25T16:21:45;1.07;;;0.20;;
12675;SDS011;63820;65.654;21.944;2023-01-25T16:24:30;0.27;;;0.20;;
12675;SDS011;63820;65.654;21.944;2023-01-25T16:27:15;0.30;;;0.30;;
12675;SDS011;63820;65.654;21.944;2023-01-25T16:30:04;0.30;;;0.30;;
12675;SDS011;63820;65.654;21.944;2023-01-25T16:32:50;0.37;;;0.30;;
12675;SDS011;63820;65.654;21.944;2023-01-25T16:35:35;2.30;;;0.30;;
12675;SDS011;63820;65.654;21.944;2023-01-25T16:38:19;0.73;;;0.30;;
12675;SDS011;63820;65.654;21.944;2023-01-25T16:41:03;0.20;;;0.20;;
12675;SDS011;63820;65.654;21.944;2023-01-25T16:43:48;1.33;;;0.43;;
12675;SDS011;63820;65.654;21.944;2023-01-25T16:46:32;0.83;;;0.30;;
12675;SDS011;63820;65.654;21.944;2023-01-25T16:49:18;1.37;;;0.30;;
12675;SDS011;63820;65.654;21.944;2023-01-25T16:52:04;0.90;;;0.40;;
12675;SDS011;63820;65.654;21.944;2023-01-25T16:54:48;0.73;;;0.30;;
12675;SDS011;63820;65.654;21.944;2023-01-25T16:57:32;0.83;;;0.30;;
12675;SDS011;63820;65.654;21.944;2023-01-25T17:00:16;1.87;;;0.47;;
12675;SDS011;63820;65.654;21.944;2023-01-25T17:03:00;0.33;;;0.33;;
12675;SDS011;63820;65.654;21.944;2023-01-25T17:05:44;1.07;;;0.50;;
12675;SDS011;63820;65.654;21.944;2023-01-25T17:08:28;1.17;;;0.40;;
12675;SDS011;63820;65.654;21.944;2023-01-25T17:11:12;0.30;;;0.30;;
12675;SDS011;63820;65.654;21.944;2023-01-25T17:13:57;0.30;;;0.30;;
12675;SDS011;63820;65.654;21.944;2023-01-25T17:16:42;0.20;;;0.20;;
12675;SDS011;63820;65.654;21.944;2023-01-25T17:19:28;0.20;;;0.20;;
12675;SDS011;63820;65.654;21.944;2023-01-25T17:22:12;0.30;;;0.30;;
12675;SDS011;63820;65.654;21.944;2023-01-25T17:24:56;0.20;;;0.20;;
12675;SDS011;63820;65.654;21.944;2023-01-25T17:27:40;0.27;;;0.20;;
12675;SDS011;63820;65.654;21.944;2023-01-25T17:30:24;0.20;;;0.20;;
12675;SDS011;63820;65.654;21.944;2023-01-25T17:33:08;1.43;;;0.30;;
12675;SDS011;63820;65.654;21.944;2023-01-25T17:35:52;0.30;;;0.30;;
12675;SDS011;63820;65.654;21.944;2023-01-25T17:38:41;0.67;;;0.20;;
12675;SDS011;63820;65.654;21.944;2023-01-25T17:41:26;1.03;;;0.30;;
12675;SDS011;63820;65.654;21.944;2023-01-25T17:44:11;0.60;;;0.43;;
12675;SDS011;63820;65.654;21.944;2023-01-25T17:46:56;0.30;;;0.30;;
12675;SDS011;63820;65.654;21.944;2023-01-25T17:49:40;0.30;;;0.30;;
12675;SDS011;63820;65.654;21.944;2023-01-25T17:52:24;0.30;;;0.30;;
12675;SDS011;63820;65.654;21.944;2023-01-25T17:55:08;0.30;;;0.30;;
12675;SDS011;63820;65.654;21.944;2023-01-25T17:57:53;0.53;;;0.50;;
12675;SDS011;63820;65.654;21.944;2023-01-25T18:00:37;0.50;;;0.50;;
12675;SDS011;63820;65.654;21.944;2023-01-25T18:03:22;0.83;;;0.40;;
12675;SDS011;63820;65.654;21.944;2023-01-25T18:06:06;0.30;;;0.30;;
12675;SDS011;63820;65.654;21.944;2023-01-25T18:08:53;0.43;;;0.40;;
12675;SDS011;63820;65.654;21.944;2023-01-25T18:11:38;0.37;;;0.30;;
12675;SDS011;63820;65.654;21.944;2023-01-25T18:14:24;0.60;;;0.37;;
12675;SDS011;63820;65.654;21.944;2023-01-25T18:17:08;0.60;;;0.30;;
12675;SDS011;63820;65.654;21.944;2023-01-25T18:19:52;1.00;;;0.40;;
12675;SDS011;63820;65.654;21.944;2023-01-25T18:22:36;0.30;;;0.30;;
12675;SDS011;63820;65.654;21.944;2023-01-25T18:25:30;1.13;;;0.50;;
12675;SDS011;63820;65.654;21.944;2023-01-25T18:28:18;1.10;;;0.93;;
12675;SDS011;63820;65.654;21.944;2023-01-25T18:31:03;2.23;;;1.30;;
12675;SDS011;63820;65.654;21.944;2023-01-25T18:33:48;2.80;;;1.67;;